Time;durP1;ratioP1;P1;durP2;ratioP2;P2;SDS_P1;SDS_P2;PMS_P1;PMS_P2;Temp;Humidity;BMP_temperature;BMP_pressure;BME280_temperature;BME280_humidity;BME280_pressure;Samples;Min_cycle;Max_cycle;Signal;HPM_P1;HPM_P2
2023/03/06 00:01:53;;;;;;;8.07;4.63;;;0.80;99.40;;;;;;5030726;28;20041;-80
2023/03/06 00:04:19;;;;;;;9.68;5.20;;;0.80;99.40;;;;;;5037977;28;20470;-79
2023/03/06 00:06:45;;;;;;;8.18;4.28;;;0.70;99.40;;;;;;5030328;28;20462;-81
2023/03/06 00:09:10;;;;;;;7.85;4.13;;;0.70;99.30;;;;;;5035470;28;20034;-80
2023/03/06 00:11:36;;;;;;;8.88;4.72;;;0.70;99.40;;;;;;5043709;28;20034;-80
2023/03/06 00:14:02;;;;;;;9.25;4.68;;;0.60;99.40;;;;;;5034205;28;20549;-80
2023/03/06 00:16:28;;;;;;;10.15;4.85;;;0.60;99.40;;;;;;5041997;28;20393;-80
2023/03/06 00:18:53;;;;;;;9.85;4.90;;;0.60;99.40;;;;;;5038180;28;20389;-80
2023/03/06 00:21:19;;;;;;;8.35;4.50;;;0.60;99.50;;;;;;5040266;28;20022;-80
2023/03/06 00:23:44;;;;;;;8.50;4.57;;;0.60;99.50;;;;;;5031662;28;20087;-81
2023/03/06 00:26:10;;;;;;;8.93;4.53;;;0.60;99.50;;;;;;5035662;28;20037;-80
2023/03/06 00:28:35;;;;;;;8.57;4.22;;;0.60;99.60;;;;;;5034101;28;20175;-80
2023/03/06 00:31:01;;;;;;;9.00;4.47;;;0.60;99.50;;;;;;5046514;28;20036;-80
2023/03/06 00:33:27;;;;;;;11.13;4.65;;;0.60;99.50;;;;;;5041234;28;20029;-81
2023/03/06 00:35:52;;;;;;;9.75;4.25;;;0.60;99.50;;;;;;5041434;28;20037;-81
2023/03/06 00:38:18;;;;;;;9.50;4.47;;;0.60;99.50;;;;;;5036040;28;20501;-80
2023/03/06 00:40:43;;;;;;;9.20;4.68;;;0.60;99.60;;;;;;5040452;28;20119;-80
2023/03/06 00:43:09;;;;;;;8.63;4.13;;;0.60;99.60;;;;;;5034628;28;20390;-80
2023/03/06 00:45:35;;;;;;;7.72;3.85;;;0.60;99.60;;;;;;5025836;28;20026;-80
2023/03/06 00:48:00;;;;;;;7.07;3.70;;;0.60;99.60;;;;;;5039227;28;20736;-80
2023/03/06 00:50:26;;;;;;;9.07;4.32;;;0.60;99.60;;;;;;5035984;28;20033;-80
2023/03/06 00:52:52;;;;;;;7.95;3.70;;;0.60;99.60;;;;;;5033457;28;20033;-80
2023/03/06 00:55:17;;;;;;;9.93;3.90;;;0.60;99.60;;;;;;5027649;28;20450;-79
2023/03/06 00:57:43;;;;;;;7.80;4.22;;;0.60;99.60;;;;;;5033197;28;20091;-80
2023/03/06 01:00:11;;;;;;;8.60;3.63;;;0.60;99.70;;;;;;5045940;28;20047;-80
2023/03/06 01:02:36;;;;;;;7.53;3.90;;;0.70;99.70;;;;;;5030351;28;20056;-80
2023/03/06 01:05:02;;;;;;;6.80;3.60;;;0.70;99.70;;;;;;5038443;28;20029;-80
2023/03/06 01:07:28;;;;;;;8.68;4.22;;;0.70;99.70;;;;;;5036518;28;20038;-80
2023/03/06 01:09:54;;;;;;;8.20;4.03;;;0.60;99.70;;;;;;5035749;28;20029;-80
2023/03/06 01:12:19;;;;;;;8.25;3.95;;;0.60;99.70;;;;;;5039782;28;20104;-80
2023/03/06 01:14:45;;;;;;;10.10;4.38;;;0.60;99.70;;;;;;5036956;28;20041;-79
2023/03/06 01:17:10;;;;;;;8.13;3.83;;;0.60;99.70;;;;;;5032398;28;20033;-80
2023/03/06 01:19:36;;;;;;;8.40;4.18;;;0.60;99.70;;;;;;5032298;28;20128;-80
2023/03/06 01:22:02;;;;;;;8.18;3.83;;;0.60;99.70;;;;;;5018145;28;20032;-81
2023/03/06 01:24:27;;;;;;;8.27;4.30;;;0.60;99.70;;;;;;5036827;28;20041;-80
2023/03/06 01:26:52;;;;;;;10.40;4.22;;;0.60;99.70;;;;;;5024012;28;20465;-80
2023/03/06 01:29:18;;;;;;;9.55;4.05;;;0.60;99.70;;;;;;5039029;28;20056;-80
2023/03/06 01:31:44;;;;;;;8.25;3.67;;;0.70;99.80;;;;;;5035735;28;20084;-80
2023/03/06 01:34:09;;;;;;;8.43;3.55;;;0.70;99.80;;;;;;5017201;28;20029;-80
2023/03/06 01:36:35;;;;;;;11.55;4.05;;;0.70;99.80;;;;;;5046531;28;20059;-80
2023/03/06 01:39:00;;;;;;;9.68;3.92;;;0.70;99.80;;;;;;5047542;28;20226;-80
2023/03/06 01:41:26;;;;;;;12.02;4.22;;;0.70;99.80;;;;;;5035064;28;20045;-79
2023/03/06 01:43:52;;;;;;;8.20;4.30;;;0.70;99.70;;;;;;5015019;28;21052;-80
2023/03/06 01:46:24;;;;;;;8.25;3.60;;;0.70;99.80;;;;;;5039265;28;20025;-80
2023/03/06 01:48:54;;;;;;;10.57;4.13;;;0.60;99.80;;;;;;5020380;28;20088;-80
2023/03/06 01:51:21;;;;;;;10.18;3.88;;;0.60;99.80;;;;;;5030913;28;20386;-80
2023/03/06 01:53:49;;;;;;;10.55;4.63;;;0.60;99.80;;;;;;5029144;28;20037;-80
2023/03/06 01:56:15;;;;;;;9.73;4.57;;;0.60;99.80;;;;;;5038524;28;20029;-81
2023/03/06 01:58:42;;;;;;;11.02;4.45;;;0.60;99.80;;;;;;5030389;28;20556;-80
2023/03/06 02:01:10;;;;;;;10.82;5.05;;;0.60;99.80;;;;;;5033999;28;20066;-80
2023/03/06 02:03:36;;;;;;;13.35;5.20;;;0.60;99.80;;;;;;5029588;28;20108;-80
2023/03/06 02:06:01;;;;;;;11.52;5.88;;;0.70;99.90;;;;;;5036562;28;20064;-80
2023/03/06 02:08:28;;;;;;;10.70;5.28;;;0.70;99.90;;;;;;5042030;28;20077;-80
2023/03/06 02:11:14;;;;;;;11.73;5.60;;;0.70;99.90;;;;;;5023712;28;20044;-80
2023/03/06 02:13:41;;;;;;;14.90;6.40;;;0.70;99.90;;;;;;5030667;28;20029;-81
2023/03/06 02:16:09;;;;;;;13.05;6.15;;;0.70;99.90;;;;;;5036072;28;20117;-80
2023/03/06 02:18:35;;;;;;;11.95;5.78;;;0.70;99.90;;;;;;5040273;28;20033;-80
2023/03/06 02:21:07;;;;;;;13.82;6.55;;;0.60;99.90;;;;;;5029203;28;20112;-80
2023/03/06 02:24:08;;;;;;;13.52;6.00;;;0.60;99.90;;;;;;5039597;28;20040;-80
2023/03/06 02:26:35;;;;;;;13.40;6.00;;;0.60;99.90;;;;;;4956287;28;20404;-80
2023/03/06 02:29:02;;;;;;;11.65;5.88;;;0.60;99.90;;;;;;5029506;28;20505;-80
2023/03/06 02:31:31;;;;;;;12.93;6.10;;;0.60;99.90;;;;;;5035611;28;20029;-80
2023/03/06 02:34:12;;;;;;;12.93;6.00;;;0.60;99.90;;;;;;5042422;28;20026;-80
2023/03/06 02:36:50;;;;;;;11.18;5.95;;;0.60;99.90;;;;;;5030059;28;20048;-80
2023/03/06 02:39:21;;;;;;;13.13;6.35;;;0.60;99.90;;;;;;5029734;28;20038;-80
2023/03/06 02:41:46;;;;;;;13.15;6.20;;;0.60;99.90;;;;;;5025109;28;20037;-80
2023/03/06 02:44:12;;;;;;;12.52;6.45;;;0.60;99.90;;;;;;5043774;28;20037;-81
2023/03/06 02:46:37;;;;;;;12.68;5.88;;;0.60;99.90;;;;;;5033752;28;20460;-80
2023/03/06 02:49:03;;;;;;;14.35;6.57;;;0.60;99.90;;;;;;5030170;28;20076;-80
2023/03/06 02:51:28;;;;;;;13.30;6.75;;;0.60;99.90;;;;;;5037935;28;20469;-80
2023/03/06 02:53:54;;;;;;;15.07;6.90;;;0.60;99.90;;;;;;5030134;28;20028;-80
2023/03/06 02:56:19;;;;;;;13.60;6.72;;;0.60;99.90;;;;;;5039160;28;20513;-80
2023/03/06 02:58:45;;;;;;;13.02;6.68;;;0.60;99.90;;;;;;5032021;28;20025;-80
2023/03/06 03:01:10;;;;;;;14.15;6.65;;;0.60;99.90;;;;;;5034019;28;20063;-81
2023/03/06 03:03:36;;;;;;;16.42;7.15;;;0.60;99.90;;;;;;5030615;28;20045;-80
2023/03/06 03:06:04;;;;;;;16.17;6.57;;;0.60;99.90;;;;;;5036981;28;20061;-81
2023/03/06 03:08:30;;;;;;;12.35;6.68;;;0.50;99.90;;;;;;5049426;28;20100;-80
2023/03/06 03:10:56;;;;;;;13.30;6.15;;;0.50;99.90;;;;;;5042525;28;20124;-80
2023/03/06 03:13:22;;;;;;;14.02;7.13;;;0.50;99.90;;;;;;5034300;28;20025;-80
2023/03/06 03:16:17;;;;;;;15.40;7.22;;;0.50;99.90;;;;;;5031553;28;20497;-80
2023/03/06 03:18:50;;;;;;;14.05;6.00;;;0.50;99.90;;;;;;5015873;28;20164;-80
2023/03/06 03:21:16;;;;;;;12.55;6.25;;;0.50;99.90;;;;;;5040548;28;20025;-80
2023/03/06 03:23:42;;;;;;;13.75;6.45;;;0.50;99.90;;;;;;5043482;28;20039;-81
2023/03/06 03:26:11;;;;;;;12.65;6.25;;;0.50;99.90;;;;;;5039460;28;20034;-80
2023/03/06 03:28:36;;;;;;;15.25;6.38;;;0.50;99.90;;;;;;5038854;28;20045;-80
2023/03/06 03:31:04;;;;;;;15.52;6.22;;;0.50;99.90;;;;;;5038000;28;20127;-80
2023/03/06 03:33:30;;;;;;;12.68;5.57;;;0.50;99.90;;;;;;5034047;28;20037;-80
2023/03/06 03:35:59;;;;;;;13.65;6.18;;;0.40;99.90;;;;;;5033135;28;20117;-80
2023/03/06 03:38:25;;;;;;;15.33;6.00;;;0.50;99.90;;;;;;5052413;28;20037;-80
2023/03/06 03:40:51;;;;;;;11.43;5.38;;;0.40;99.90;;;;;;5033438;28;20048;-80
2023/03/06 03:43:17;;;;;;;13.15;5.50;;;0.40;99.90;;;;;;5052813;28;20036;-79
2023/03/06 03:45:42;;;;;;;12.35;6.10;;;0.40;99.90;;;;;;5038895;28;20493;-80
2023/03/06 03:48:08;;;;;;;14.45;5.43;;;0.30;99.90;;;;;;5049066;28;20041;-81
2023/03/06 03:50:33;;;;;;;13.82;5.40;;;0.30;99.90;;;;;;5016975;28;20029;-80
2023/03/06 03:52:59;;;;;;;12.30;5.07;;;0.30;99.90;;;;;;5041228;28;20120;-80
2023/03/06 03:55:24;;;;;;;12.98;4.78;;;0.30;99.90;;;;;;5039573;28;20075;-80
2023/03/06 03:57:50;;;;;;;11.85;4.88;;;0.30;99.90;;;;;;5034130;28;20053;-80
2023/03/06 04:00:16;;;;;;;12.20;4.55;;;0.30;99.90;;;;;;5016159;28;20063;-80
2023/03/06 04:02:43;;;;;;;13.80;5.53;;;0.30;99.90;;;;;;5032005;28;20077;-80
2023/03/06 04:05:09;;;;;;;15.52;5.30;;;0.30;99.90;;;;;;5034387;28;22464;-80
2023/03/06 04:07:35;;;;;;;11.55;4.43;;;0.30;99.90;;;;;;5034732;28;20401;-80
2023/03/06 04:10:01;;;;;;;12.52;4.93;;;0.30;99.90;;;;;;5046870;28;20097;-80
2023/03/06 04:12:26;;;;;;;11.73;4.57;;;0.30;99.90;;;;;;5052956;28;20037;-81
2023/03/06 04:14:52;;;;;;;11.27;5.25;;;0.30;99.90;;;;;;5044801;28;20040;-80
2023/03/06 04:17:17;;;;;;;10.75;4.97;;;0.30;99.90;;;;;;5023570;28;20389;-79
2023/03/06 04:19:43;;;;;;;11.07;4.97;;;0.20;99.90;;;;;;5036305;28;20037;-80
2023/03/06 04:22:08;;;;;;;11.13;4.38;;;0.30;99.90;;;;;;5036634;28;20061;-80
2023/03/06 04:24:34;;;;;;;9.35;4.22;;;0.20;99.90;;;;;;5045534;28;20036;-80
2023/03/06 04:26:59;;;;;;;11.75;4.47;;;0.20;99.90;;;;;;5029228;28;20065;-80
2023/03/06 04:29:24;;;;;;;9.82;4.35;;;0.20;99.90;;;;;;5029905;28;20406;-81
2023/03/06 04:31:50;;;;;;;8.07;3.58;;;0.20;99.90;;;;;;5010185;28;20034;-81
2023/03/06 04:34:15;;;;;;;10.68;3.88;;;0.10;99.90;;;;;;4998613;28;20544;-80
2023/03/06 04:36:43;;;;;;;10.40;3.83;;;0.10;99.90;;;;;;5017789;28;20048;-81
2023/03/06 04:39:13;;;;;;;11.95;3.97;;;0.10;99.90;;;;;;5033596;28;20025;-81
2023/03/06 04:41:39;;;;;;;10.43;4.05;;;0.10;99.90;;;;;;5021536;28;20029;-81
2023/03/06 04:44:05;;;;;;;10.13;3.85;;;0.10;99.90;;;;;;5029988;28;20045;-81
2023/03/06 04:46:31;;;;;;;7.80;3.35;;;0.10;99.90;;;;;;5016480;28;20030;-81
2023/03/06 04:48:57;;;;;;;8.55;3.35;;;0.10;99.90;;;;;;5024045;28;20033;-81
2023/03/06 04:51:22;;;;;;;10.18;3.60;;;0.10;99.90;;;;;;5020999;28;20033;-81
2023/03/06 04:53:48;;;;;;;8.60;3.55;;;0.10;99.90;;;;;;5025365;28;20091;-80
2023/03/06 04:56:14;;;;;;;10.65;4.10;;;0.10;99.90;;;;;;5020143;28;20474;-81
2023/03/06 04:58:39;;;;;;;9.45;4.00;;;0.10;99.90;;;;;;5012340;28;20386;-80
2023/03/06 05:01:05;;;;;;;8.77;3.53;;;0.10;99.90;;;;;;5014473;28;20069;-81
2023/03/06 05:03:30;;;;;;;7.47;3.17;;;0.10;99.90;;;;;;5021856;28;20505;-80
2023/03/06 05:05:56;;;;;;;10.25;3.90;;;0.10;99.90;;;;;;5024215;28;20033;-80
2023/03/06 05:08:22;;;;;;;7.22;3.03;;;0.10;99.90;;;;;;5025611;28;20033;-80
2023/03/06 05:10:57;;;;;;;8.88;3.80;;;0.10;99.90;;;;;;5019302;28;20053;-81
2023/03/06 05:13:23;;;;;;;11.27;3.30;;;0.10;99.90;;;;;;5017946;28;20083;-81
2023/03/06 05:15:49;;;;;;;10.13;3.22;;;0.10;99.90;;;;;;5006097;28;20097;-80
2023/03/06 05:18:14;;;;;;;9.80;3.50;;;0.10;99.90;;;;;;5026796;28;20029;-81
2023/03/06 05:20:40;;;;;;;8.05;3.15;;;0.10;99.90;;;;;;5012904;28;20042;-81
2023/03/06 05:23:05;;;;;;;9.27;4.00;;;0.10;99.90;;;;;;5011630;28;20077;-80
2023/03/06 05:25:31;;;;;;;7.25;3.58;;;0.10;99.90;;;;;;5013300;28;20038;-81
2023/03/06 05:27:57;;;;;;;7.50;3.45;;;0.10;99.90;;;;;;5022019;28;20358;-81
2023/03/06 05:30:22;;;;;;;10.90;4.18;;;0.10;99.90;;;;;;5012255;28;20096;-74
2023/03/06 05:32:49;;;;;;;10.38;4.18;;;0.10;99.90;;;;;;5001157;28;20041;-74
2023/03/06 05:35:17;;;;;;;8.25;3.38;;;0.10;99.90;;;;;;5015615;28;20034;-74
2023/03/06 05:37:42;;;;;;;10.73;4.35;;;0.10;99.90;;;;;;5013352;28;20438;-74
2023/03/06 05:40:09;;;;;;;9.82;3.88;;;0.10;99.90;;;;;;5009496;28;20033;-74
2023/03/06 05:42:34;;;;;;;11.25;4.60;;;0.10;99.90;;;;;;4984815;28;20065;-74
2023/03/06 05:45:01;;;;;;;10.48;4.53;;;0.10;99.90;;;;;;5009063;28;20395;-74
2023/03/06 05:47:27;;;;;;;9.27;4.40;;;0.10;99.90;;;;;;5009529;28;20056;-74
2023/03/06 05:49:52;;;;;;;9.68;4.78;;;0.10;99.90;;;;;;5013312;28;20452;-74
2023/03/06 05:52:21;;;;;;;10.65;4.50;;;0.20;99.90;;;;;;5013621;28;20034;-73
2023/03/06 05:54:50;;;;;;;11.45;5.10;;;0.10;99.90;;;;;;5019103;28;20030;-74
2023/03/06 05:57:17;;;;;;;11.10;4.85;;;0.10;99.90;;;;;;5012303;28;20466;-74
2023/03/06 05:59:42;;;;;;;12.82;4.70;;;0.10;99.90;;;;;;5006895;28;20124;-75
2023/03/06 06:02:08;;;;;;;12.18;5.20;;;0.10;99.90;;;;;;5007153;28;20156;-74
2023/03/06 06:04:33;;;;;;;8.48;4.55;;;0.10;99.90;;;;;;5001600;28;20538;-74
2023/03/06 06:06:59;;;;;;;12.55;5.38;;;0.10;99.90;;;;;;5008153;28;20088;-74
2023/03/06 06:09:27;;;;;;;11.93;5.22;;;0.10;99.90;;;;;;5010448;28;20036;-74
2023/03/06 06:11:57;;;;;;;12.40;5.22;;;0.10;99.90;;;;;;5011440;28;20136;-74
2023/03/06 06:14:23;;;;;;;12.45;5.53;;;0.10;99.90;;;;;;5009139;28;20483;-73
2023/03/06 06:16:49;;;;;;;15.80;5.45;;;0.10;99.90;;;;;;5004237;28;20047;-74
2023/03/06 06:19:17;;;;;;;18.38;6.03;;;0.10;99.90;;;;;;5002990;28;20034;-73
2023/03/06 06:21:52;;;;;;;12.50;6.07;;;0.10;99.90;;;;;;5011438;28;20034;-73
2023/03/06 06:24:20;;;;;;;16.30;6.93;;;0.10;99.90;;;;;;5005074;28;20033;-75
2023/03/06 06:26:49;;;;;;;21.02;6.53;;;0.10;99.90;;;;;;5011685;28;20399;-73
2023/03/06 06:29:14;;;;;;;16.63;6.25;;;0.10;99.90;;;;;;5008169;28;20046;-73
2023/03/06 06:31:40;;;;;;;13.65;6.68;;;0.10;99.90;;;;;;4993406;28;20359;-76
2023/03/06 06:34:06;;;;;;;16.02;6.65;;;0.10;99.90;;;;;;5014544;28;20072;-73
2023/03/06 06:36:32;;;;;;;13.52;5.82;;;0.10;99.90;;;;;;4990784;28;20038;-74
2023/03/06 06:38:58;;;;;;;11.85;5.47;;;0.10;99.90;;;;;;5013042;28;20029;-75
2023/03/06 06:41:24;;;;;;;14.43;6.65;;;0.10;99.90;;;;;;5014056;28;20470;-75
2023/03/06 06:43:50;;;;;;;16.95;6.40;;;0.20;99.90;;;;;;5004792;28;20041;-74
2023/03/06 06:46:15;;;;;;;16.30;6.47;;;0.20;99.90;;;;;;5007104;28;20045;-74
2023/03/06 06:48:41;;;;;;;15.38;6.43;;;0.20;99.90;;;;;;5011777;28;20076;-75
2023/03/06 06:51:06;;;;;;;14.68;6.05;;;0.20;99.90;;;;;;5012357;28;20049;-74
2023/03/06 06:53:32;;;;;;;13.65;5.35;;;0.20;99.90;;;;;;5001373;28;20034;-75
2023/03/06 06:55:58;;;;;;;15.35;5.35;;;0.20;99.90;;;;;;5006206;28;20133;-74
2023/03/06 06:58:24;;;;;;;13.02;5.93;;;0.30;99.90;;;;;;5011029;28;20026;-74
2023/03/06 07:00:50;;;;;;;19.52;6.72;;;0.30;99.90;;;;;;5020587;28;20409;-74
2023/03/06 07:03:16;;;;;;;15.02;6.05;;;0.40;99.90;;;;;;5014638;28;20060;-74
2023/03/06 07:05:41;;;;;;;15.38;6.50;;;0.30;99.80;;;;;;5012985;28;20033;-75
2023/03/06 07:08:07;;;;;;;12.77;6.32;;;0.30;99.80;;;;;;5013212;28;20495;-75
2023/03/06 07:10:32;;;;;;;15.95;6.57;;;0.30;99.80;;;;;;5002645;28;20041;-74
2023/03/06 07:12:58;;;;;;;15.85;7.00;;;0.30;99.80;;;;;;5000721;28;20524;-73
2023/03/06 07:15:25;;;;;;;13.23;6.05;;;0.30;99.80;;;;;;5010284;28;20164;-75
2023/03/06 07:17:51;;;;;;;17.30;7.30;;;0.30;99.70;;;;;;4998954;28;20117;-75
2023/03/06 07:20:18;;;;;;;18.55;6.30;;;0.20;99.70;;;;;;5019923;28;20140;-73
2023/03/06 07:22:44;;;;;;;12.10;6.53;;;0.20;99.70;;;;;;5015226;28;20046;-77
2023/03/06 07:25:10;;;;;;;12.75;6.30;;;0.30;99.80;;;;;;5010135;28;20029;-76
2023/03/06 07:27:35;;;;;;;12.30;5.90;;;0.30;99.80;;;;;;5007010;28;20026;-74
2023/03/06 07:30:01;;;;;;;11.82;5.97;;;0.20;99.70;;;;;;4997333;28;20050;-76
2023/03/06 07:32:26;;;;;;;14.10;6.45;;;0.30;99.80;;;;;;5007151;28;20376;-75
2023/03/06 07:34:52;;;;;;;11.30;5.60;;;0.30;99.70;;;;;;5015313;28;20058;-74
2023/03/06 07:37:20;;;;;;;11.57;6.22;;;0.20;99.60;;;;;;5014301;28;20034;-74
2023/03/06 07:39:46;;;;;;;12.18;5.72;;;0.30;99.70;;;;;;5009799;28;20029;-76
2023/03/06 07:42:12;;;;;;;11.38;5.63;;;0.40;99.70;;;;;;5006483;28;20774;-76
2023/03/06 07:44:38;;;;;;;15.75;5.70;;;0.20;99.40;;;;;;5001605;28;20036;-74
2023/03/06 07:47:04;;;;;;;10.52;5.15;;;0.30;99.60;;;;;;5016569;28;20545;-74
2023/03/06 07:49:30;;;;;;;10.48;5.53;;;0.20;99.50;;;;;;5019230;28;20045;-75
2023/03/06 07:51:57;;;;;;;12.55;5.18;;;0.30;99.50;;;;;;5009367;28;20153;-75
2023/03/06 07:54:23;;;;;;;11.60;5.35;;;0.30;99.50;;;;;;5014738;28;20093;-75
2023/03/06 07:56:52;;;;;;;12.32;5.07;;;0.20;99.50;;;;;;5009413;28;20034;-75
2023/03/06 07:59:18;;;;;;;12.50;5.45;;;0.20;99.50;;;;;;5004008;28;20092;-73
2023/03/06 08:01:43;;;;;;;12.60;6.10;;;0.20;99.50;;;;;;5019141;28;20041;-74
2023/03/06 08:04:09;;;;;;;11.95;5.40;;;0.30;99.60;;;;;;5019948;28;20038;-74
2023/03/06 08:06:35;;;;;;;10.63;5.43;;;0.40;99.50;;;;;;5010206;28;20112;-74
2023/03/06 08:09:00;;;;;;;10.75;5.28;;;0.50;99.50;;;;;;5010947;28;20038;-76
2023/03/06 08:11:28;;;;;;;14.77;5.38;;;0.50;99.30;;;;;;5009773;28;20038;-73
2023/03/06 08:13:55;;;;;;;14.52;5.88;;;0.60;99.40;;;;;;5017992;28;20076;-73
2023/03/06 08:16:23;;;;;;;10.50;4.72;;;0.70;99.30;;;;;;5012944;28;20029;-73
2023/03/06 08:18:49;;;;;;;9.63;4.85;;;0.80;99.30;;;;;;5009099;28;20042;-73
2023/03/06 08:21:16;;;;;;;10.75;4.97;;;0.70;99.10;;;;;;5015181;28;20050;-73
2023/03/06 08:23:43;;;;;;;9.65;4.13;;;0.60;99.00;;;;;;5016338;28;20030;-73
2023/03/06 08:26:14;;;;;;;10.82;4.97;;;0.70;99.00;;;;;;5012313;28;20100;-74
2023/03/06 08:28:40;;;;;;;8.45;4.63;;;0.80;99.00;;;;;;5015169;28;20046;-73
2023/03/06 08:31:25;;;;;;;10.15;4.63;;;0.80;98.90;;;;;;5008613;28;20036;-74
2023/03/06 08:33:52;;;;;;;11.93;5.13;;;0.80;98.80;;;;;;5013320;28;20064;-76
2023/03/06 08:36:17;;;;;;;12.77;4.85;;;0.90;99.00;;;;;;5006617;28;20463;-74
2023/03/06 08:38:43;;;;;;;9.25;4.53;;;0.90;98.80;;;;;;5010906;28;20040;-76
2023/03/06 08:41:08;;;;;;;8.15;4.30;;;1.10;98.90;;;;;;5006515;28;20038;-74
2023/03/06 08:43:34;;;;;;;9.38;4.28;;;1.00;98.50;;;;;;5010905;28;20051;-76
2023/03/06 08:46:00;;;;;;;10.30;4.63;;;1.10;98.40;;;;;;5015808;28;20034;-75
2023/03/06 08:48:26;;;;;;;10.30;5.30;;;1.20;98.20;;;;;;5010245;28;20064;-75
2023/03/06 08:50:52;;;;;;;11.75;4.10;;;1.10;97.60;;;;;;5013743;28;20307;-73
2023/03/06 08:53:18;;;;;;;7.05;3.75;;;1.20;97.20;;;;;;5007917;28;20045;-76
2023/03/06 08:55:44;;;;;;;8.50;3.85;;;1.30;97.40;;;;;;4995957;28;20057;-77
2023/03/06 08:58:09;;;;;;;8.52;3.95;;;1.30;97.10;;;;;;5002099;28;20241;-75
2023/03/06 09:00:36;;;;;;;10.48;4.35;;;1.30;96.80;;;;;;5011942;28;20042;-76
2023/03/06 09:03:01;;;;;;;10.65;4.20;;;1.40;97.10;;;;;;5019805;28;20041;-77
2023/03/06 09:05:27;;;;;;;9.40;4.15;;;1.30;96.80;;;;;;5008147;28;20031;-75
2023/03/06 09:07:52;;;;;;;10.20;3.80;;;1.30;97.00;;;;;;5014508;28;20062;-74
2023/03/06 09:10:23;;;;;;;10.20;4.05;;;1.40;97.30;;;;;;5006114;28;20037;-75
2023/03/06 09:12:50;;;;;;;7.50;3.80;;;1.40;97.00;;;;;;5008788;28;20037;-74
2023/03/06 09:15:16;;;;;;;9.07;3.75;;;1.40;97.10;;;;;;5005277;28;20053;-74
2023/03/06 09:17:41;;;;;;;10.88;4.35;;;1.30;96.80;;;;;;5009694;28;20092;-74
2023/03/06 09:20:09;;;;;;;6.75;3.17;;;1.30;96.70;;;;;;5013349;28;20042;-74
2023/03/06 09:22:35;;;;;;;8.93;3.85;;;1.30;96.40;;;;;;5008303;28;20767;-75
2023/03/06 09:25:01;;;;;;;7.30;3.35;;;1.30;96.40;;;;;;5012884;28;20188;-74
2023/03/06 09:27:27;;;;;;;6.47;3.03;;;1.60;96.40;;;;;;4993213;28;20124;-75
2023/03/06 09:29:53;;;;;;;7.13;3.28;;;1.80;96.20;;;;;;5020619;28;20061;-73
2023/03/06 09:32:19;;;;;;;6.13;3.25;;;1.80;95.90;;;;;;5024315;28;20037;-76
2023/03/06 09:34:44;;;;;;;7.80;3.90;;;1.90;96.10;;;;;;5017133;28;20029;-73
2023/03/06 09:37:10;;;;;;;6.55;3.45;;;2.00;96.30;;;;;;5023980;28;20032;-75
2023/03/06 09:39:36;;;;;;;7.32;3.17;;;1.90;95.80;;;;;;5033448;28;20042;-73
2023/03/06 09:42:01;;;;;;;8.82;3.25;;;1.90;96.00;;;;;;5032631;28;20438;-76
2023/03/06 09:44:30;;;;;;;6.10;2.97;;;2.00;96.00;;;;;;5028710;28;20057;-73
2023/03/06 09:47:30;;;;;;;7.45;3.05;;;1.90;95.60;;;;;;5011661;28;20424;-73
2023/03/06 09:50:20;;;;;;;7.88;3.10;;;2.00;95.60;;;;;;5029032;28;20465;-73
2023/03/06 09:53:07;;;;;;;6.13;3.10;;;2.40;95.70;;;;;;5039842;28;20068;-76
2023/03/06 09:55:39;;;;;;;6.80;3.38;;;3.00;95.40;;;;;;5036905;28;20090;-73
2023/03/06 09:58:20;;;;;;;6.75;2.63;;;3.20;94.30;;;;;;5031438;28;20037;-74
2023/03/06 10:01:03;;;;;;;6.22;2.80;;;3.30;93.20;;;;;;5027642;28;20040;-73
2023/03/06 10:03:51;;;;;;;4.45;2.55;;;3.30;92.90;;;;;;5028887;28;20037;-74
2023/03/06 10:06:25;;;;;;;4.90;2.35;;;2.90;92.50;;;;;;5035076;28;20029;-73
2023/03/06 10:08:58;;;;;;;5.63;2.83;;;2.90;93.60;;;;;;5032896;28;20501;-74
2023/03/06 10:11:35;;;;;;;9.30;2.88;;;2.90;93.50;;;;;;5030766;28;20044;-74
2023/03/06 10:14:30;;;;;;;6.80;2.80;;;3.10;93.90;;;;;;5027265;28;20037;-73
2023/03/06 10:16:57;;;;;;;9.73;2.55;;;3.30;93.50;;;;;;5031268;28;20030;-73
2023/03/06 10:19:26;;;;;;;6.85;2.38;;;3.10;93.40;;;;;;5043230;28;20350;-73
2023/03/06 10:22:10;;;;;;;5.60;2.95;;;2.90;92.60;;;;;;5034511;28;20071;-74
2023/03/06 10:25:15;;;;;;;6.40;2.65;;;2.90;92.30;;;;;;5018034;28;20026;-74
2023/03/06 10:27:56;;;;;;;5.68;2.55;;;3.20;93.30;;;;;;5025080;28;20036;-74
2023/03/06 10:30:33;;;;;;;4.68;2.63;;;3.20;92.90;;;;;;5007305;28;20050;-75
2023/03/06 10:33:07;;;;;;;5.13;2.58;;;3.20;92.20;;;;;;5012139;28;20030;-75
2023/03/06 10:35:38;;;;;;;6.85;2.72;;;3.30;92.50;;;;;;5020244;28;20025;-74
2023/03/06 10:38:30;;;;;;;7.40;2.70;;;3.30;92.40;;;;;;5013737;28;20113;-74
2023/03/06 10:41:10;;;;;;;7.05;2.53;;;3.40;92.20;;;;;;5012984;28;20466;-74
2023/03/06 10:43:39;;;;;;;6.22;2.92;;;3.70;92.00;;;;;;5010821;28;20347;-74
2023/03/06 10:46:06;;;;;;;3.65;2.17;;;3.90;90.90;;;;;;5002402;28;20088;-74
2023/03/06 10:48:35;;;;;;;8.07;2.40;;;3.40;88.20;;;;;;5019490;28;20037;-74
2023/03/06 10:51:21;;;;;;;5.10;2.72;;;3.50;90.10;;;;;;5016533;28;20033;-74
2023/03/06 10:53:58;;;;;;;6.75;2.17;;;3.80;88.50;;;;;;5009166;28;20478;-74
2023/03/06 10:56:31;;;;;;;7.90;2.42;;;4.10;89.40;;;;;;5018931;28;20069;-74
2023/03/06 10:59:13;;;;;;;9.88;2.63;;;4.40;88.60;;;;;;5011021;28;20052;-75
2023/03/06 11:01:41;;;;;;;3.58;1.92;;;4.90;88.00;;;;;;5022391;28;20490;-75
2023/03/06 11:04:24;;;;;;;5.10;2.10;;;4.80;85.60;;;;;;5002336;28;20383;-75
2023/03/06 11:07:21;;;;;;;6.38;2.60;;;4.60;86.60;;;;;;5022819;28;20036;-75
2023/03/06 11:09:56;;;;;;;6.57;2.33;;;5.20;86.00;;;;;;5006545;28;20033;-75
2023/03/06 11:12:36;;;;;;;5.90;2.15;;;5.00;84.80;;;;;;5016025;28;20040;-75
2023/03/06 11:15:17;;;;;;;6.87;2.57;;;4.80;86.20;;;;;;4997371;28;20084;-74
2023/03/06 11:17:54;;;;;;;;;;;4.90;86.80;;;;;;5011181;28;20025;-75
2023/03/06 11:20:24;;;;;;;5.45;1.88;;;4.70;85.40;;;;;;5015748;28;19951;-76
2023/03/06 11:23:06;;;;;;;5.60;2.10;;;4.50;84.30;;;;;;5006593;28;20061;-76
2023/03/06 11:25:40;;;;;;;8.43;2.92;;;4.30;83.20;;;;;;4997679;28;20057;-76
2023/03/06 11:28:19;;;;;;;5.72;2.20;;;4.10;86.40;;;;;;5006617;28;20390;-74
2023/03/06 11:30:49;;;;;;;4.47;1.88;;;3.70;85.20;;;;;;5013255;28;20150;-74
2023/03/06 11:33:35;;;;;;;5.03;2.40;;;3.70;86.60;;;;;;5015336;28;20029;-74
2023/03/06 11:36:35;;;;;;;7.57;2.55;;;3.40;86.80;;;;;;5013790;28;20034;-75
2023/03/06 11:39:08;;;;;;;5.30;2.13;;;4.50;88.40;;;;;;5005004;28;20032;-76
2023/03/06 11:41:52;;;;;;;4.10;1.48;;;5.00;82.40;;;;;;5019024;28;20033;-76
2023/03/06 11:44:39;;;;;;;4.30;2.17;;;4.90;78.40;;;;;;4994935;28;20435;-76
2023/03/06 11:47:22;;;;;;;4.45;2.05;;;4.90;81.50;;;;;;5001004;28;20033;-77
2023/03/06 11:50:11;;;;;;;5.80;2.40;;;5.40;79.50;;;;;;5007345;28;20025;-75
2023/03/06 11:52:51;;;;;;;7.68;3.38;;;5.90;81.30;;;;;;5017398;28;20038;-76
2023/03/06 11:55:37;;;;;;;6.75;3.20;;;6.00;81.50;;;;;;5013515;28;20084;-76
2023/03/06 11:58:26;;;;;;;8.50;3.40;;;6.60;81.00;;;;;;5011192;28;20057;-76
2023/03/06 12:01:16;;;;;;;8.70;3.38;;;7.10;79.20;;;;;;5010909;28;20435;-76
2023/03/06 12:03:52;;;;;;;6.93;3.55;;;6.70;79.10;;;;;;5010599;28;20042;-76
2023/03/06 12:06:34;;;;;;;9.90;3.60;;;5.90;79.80;;;;;;5015878;28;20033;-75
2023/03/06 12:09:25;;;;;;;6.30;3.25;;;6.00;80.00;;;;;;5011216;28;20026;-77
2023/03/06 12:12:14;;;;;;;7.47;3.42;;;6.20;80.90;;;;;;5010637;28;20124;-75
2023/03/06 12:15:04;;;;;;;7.68;3.80;;;5.50;80.40;;;;;;5003826;28;20526;-75
2023/03/06 12:17:51;;;;;;;6.35;3.35;;;4.90;83.00;;;;;;5007959;28;20033;-76
2023/03/06 12:20:42;;;;;;;8.43;2.97;;;4.70;83.60;;;;;;5011739;28;20046;-76
2023/03/06 12:23:27;;;;;;;;;;;4.40;80.70;;;;;;5012718;28;20056;-75
2023/03/06 12:26:14;;;;;;;10.20;3.13;;;4.40;82.50;;;;;;5011801;28;19917;-75
2023/03/06 12:28:55;;;;;;;9.32;3.55;;;4.10;81.90;;;;;;5019559;28;20049;-76
2023/03/06 12:31:40;;;;;;;7.95;4.43;;;3.90;84.00;;;;;;5034022;28;20377;-75
2023/03/06 12:34:33;;;;;;;10.85;4.70;;;3.90;85.10;;;;;;5028904;28;20026;-75
2023/03/06 12:37:09;;;;;;;8.52;4.63;;;4.00;85.70;;;;;;5025313;28;20163;-76
2023/03/06 12:39:41;;;;;;;7.43;4.35;;;4.00;86.00;;;;;;5021892;28;20033;-76
2023/03/06 12:42:44;;;;;;;10.05;4.63;;;4.10;85.40;;;;;;5022569;28;20029;-75
2023/03/06 12:45:26;;;;;;;8.32;4.43;;;4.30;85.10;;;;;;5017011;28;20030;-74
2023/03/06 12:47:55;;;;;;;9.13;4.63;;;4.50;84.60;;;;;;5023475;28;20041;-74
2023/03/06 12:50:31;;;;;;;9.93;4.70;;;4.60;83.50;;;;;;5036461;28;20384;-74
2023/03/06 12:53:11;;;;;;;13.30;5.45;;;4.40;83.10;;;;;;5034343;28;20041;-74
2023/03/06 12:55:42;;;;;;;11.30;5.13;;;4.70;84.70;;;;;;5036713;28;20090;-74
2023/03/06 12:58:29;;;;;;;9.57;5.32;;;5.00;83.40;;;;;;5034886;28;20378;-75
2023/03/06 13:01:31;;;;;;;10.43;5.57;;;5.30;84.80;;;;;;5028962;28;20038;-75
2023/03/06 13:04:28;;;;;;;9.95;4.78;;;5.50;81.60;;;;;;5025339;28;20041;-75
2023/03/06 13:07:35;;;;;;;10.20;5.15;;;5.80;78.80;;;;;;5023406;28;20038;-75
2023/03/06 13:10:03;;;;;;;10.73;5.40;;;6.00;80.80;;;;;;5023916;28;20061;-76